createdAt,value
2023-06-10T00:00:23.812Z,18.71
2023-06-10T00:02:52.004Z,18.72
2023-06-10T00:05:22.578Z,18.68
2023-06-10T00:07:50.736Z,18.62
2023-06-10T00:10:19.033Z,18.59
2023-06-10T00:12:47.139Z,18.54
2023-06-10T00:15:15.334Z,18.49
2023-06-10T00:17:43.736Z,18.47
2023-06-10T00:20:13.649Z,18.43
2023-06-10T00:22:47.026Z,18.40
2023-06-10T00:25:15.278Z,18.37
2023-06-10T00:27:43.637Z,18.33
2023-06-10T00:30:12.993Z,18.31
2023-06-10T00:32:41.429Z,18.28
2023-06-10T00:35:10.237Z,18.24
2023-06-10T00:37:38.999Z,18.21
2023-06-10T00:40:10.977Z,18.18
2023-06-10T00:42:39.205Z,18.19
2023-06-10T00:45:09.281Z,18.17
2023-06-10T00:47:38.139Z,18.15
2023-06-10T00:50:07.606Z,18.12
2023-06-10T00:52:37.130Z,18.10
2023-06-10T00:55:05.644Z,18.07
2023-06-10T00:57:53.530Z,18.03
2023-06-10T01:01:05.075Z,18.03
2023-06-10T01:07:22.667Z,18.01
2023-06-10T01:09:58.481Z,17.99
2023-06-10T01:12:34.352Z,17.99
2023-06-10T01:15:06.726Z,17.97
2023-06-10T01:17:34.921Z,17.93
2023-06-10T01:20:05.133Z,17.88
2023-06-10T01:22:37.657Z,17.85
2023-06-10T01:25:09.331Z,17.84
2023-06-10T01:27:41.824Z,17.80
2023-06-10T01:30:17.369Z,17.79
2023-06-10T01:32:48.969Z,17.76
2023-06-10T01:35:18.192Z,17.78
2023-06-10T01:37:48.994Z,17.78
2023-06-10T01:40:18.258Z,17.77
2023-06-10T01:42:46.185Z,17.76
2023-06-10T01:45:14.427Z,17.73
2023-06-10T01:47:42.526Z,17.73
2023-06-10T01:50:11.469Z,17.72
2023-06-10T01:52:39.613Z,17.69
2023-06-10T01:55:12.304Z,17.65
2023-06-10T01:57:40.309Z,17.65
2023-06-10T02:00:09.550Z,17.67
2023-06-10T02:02:37.602Z,17.68
2023-06-10T02:05:06.596Z,17.65
2023-06-10T02:07:34.537Z,17.65
2023-06-10T02:10:02.450Z,17.63
2023-06-10T02:12:31.812Z,17.55
2023-06-10T02:14:59.788Z,17.48
2023-06-10T02:17:27.701Z,17.44
2023-06-10T02:19:55.757Z,17.39
2023-06-10T02:22:24.594Z,17.33
2023-06-10T02:24:52.448Z,17.25
2023-06-10T02:27:21.705Z,17.17
2023-06-10T02:29:50.939Z,17.12
2023-06-10T02:32:19.096Z,17.08
2023-06-10T02:34:49.381Z,17.05
2023-06-10T02:37:19.520Z,17.01
2023-06-10T02:39:47.390Z,16.99
2023-06-10T02:42:15.386Z,16.99
2023-06-10T02:44:43.173Z,16.99
2023-06-10T02:47:12.601Z,16.96
2023-06-10T02:49:41.205Z,16.94
2023-06-10T02:52:09.686Z,16.93
2023-06-10T02:54:37.865Z,16.90
2023-06-10T02:57:07.327Z,16.97
2023-06-10T02:59:36.059Z,17.01
2023-06-10T03:02:04.105Z,17.06
2023-06-10T03:04:33.356Z,17.08
2023-06-10T03:07:04.928Z,17.10
2023-06-10T03:09:32.923Z,17.13
2023-06-10T03:12:01.847Z,17.16
2023-06-10T03:14:29.810Z,17.21
2023-06-10T03:16:57.767Z,17.27
2023-06-10T03:19:25.637Z,17.31
2023-06-10T03:22:08.810Z,17.32
2023-06-10T03:24:37.665Z,17.38
2023-06-10T03:27:07.703Z,17.40
2023-06-10T03:29:35.908Z,17.45
2023-06-10T03:32:03.890Z,17.50
2023-06-10T03:34:32.095Z,17.54
2023-06-10T03:37:01.468Z,17.57
2023-06-10T03:39:30.421Z,17.64
2023-06-10T03:41:58.889Z,17.67
2023-06-10T03:44:27.212Z,17.70
2023-06-10T03:46:55.254Z,17.74
2023-06-10T03:49:28.194Z,17.77
2023-06-10T03:51:56.153Z,17.81
2023-06-10T03:54:25.769Z,17.84
2023-06-10T03:56:53.679Z,17.86
2023-06-10T03:59:21.616Z,17.92
2023-06-10T04:01:49.548Z,17.98
2023-06-10T04:04:18.594Z,18.00
2023-06-10T04:06:46.601Z,18.02
2023-06-10T04:09:14.680Z,18.02
2023-06-10T04:11:44.070Z,18.03
2023-06-10T04:14:12.005Z,18.06
2023-06-10T04:16:39.924Z,18.08
2023-06-10T04:19:07.865Z,18.14
2023-06-10T04:21:37.118Z,18.19
2023-06-10T04:24:05.752Z,18.26
2023-06-10T04:26:34.753Z,18.32
2023-06-10T04:29:04.055Z,18.35
2023-06-10T04:31:33.453Z,18.43
2023-06-10T04:34:01.986Z,18.47
2023-06-10T04:36:30.443Z,18.51
2023-06-10T04:38:58.279Z,18.58
2023-06-10T04:41:26.934Z,18.61
2023-06-10T04:43:54.853Z,18.69
2023-06-10T04:46:26.462Z,18.78
2023-06-10T04:48:55.696Z,18.87
2023-06-10T04:51:23.629Z,18.92
2023-06-10T04:53:51.591Z,18.98
2023-06-10T04:56:19.590Z,18.96
2023-06-10T04:58:47.515Z,18.92
2023-06-10T05:01:15.488Z,18.91
2023-06-10T05:03:45.936Z,18.95
2023-06-10T05:06:13.954Z,19.00
2023-06-10T05:08:41.942Z,19.10
2023-06-10T05:11:09.877Z,19.19
2023-06-10T05:13:37.893Z,19.26
2023-06-10T05:16:06.202Z,19.32
2023-06-10T05:18:34.161Z,19.34
2023-06-10T05:21:03.527Z,19.36
2023-06-10T05:23:31.726Z,19.44
2023-06-10T05:26:00.694Z,19.46
2023-06-10T05:28:28.593Z,19.45
2023-06-10T05:30:56.627Z,19.45
2023-06-10T05:33:24.625Z,19.45
2023-06-10T05:35:52.577Z,19.49
2023-06-10T05:38:21.966Z,19.56
2023-06-10T05:40:49.992Z,19.66
2023-06-10T05:43:18.657Z,19.72
2023-06-10T05:45:46.841Z,19.78
2023-06-10T05:48:14.867Z,19.82
2023-06-10T05:50:43.956Z,19.86
2023-06-10T05:53:16.157Z,19.90
2023-06-10T05:55:46.743Z,19.95
2023-06-10T05:58:15.784Z,20.00
2023-06-10T06:00:43.787Z,20.01
2023-06-10T06:03:12.387Z,20.10
2023-06-10T06:05:40.591Z,20.19
2023-06-10T06:08:09.210Z,20.27
2023-06-10T06:10:37.374Z,20.32
2023-06-10T06:13:06.691Z,20.34
2023-06-10T06:15:34.726Z,20.34
2023-06-10T06:18:02.646Z,20.39
2023-06-10T06:20:30.911Z,20.45
2023-06-10T06:22:58.878Z,20.52
2023-06-10T06:25:26.907Z,20.53
2023-06-10T06:27:54.900Z,20.57
2023-06-10T06:30:24.121Z,20.61
2023-06-10T06:32:53.002Z,20.60
2023-06-10T06:35:21.345Z,20.58
2023-06-10T06:37:49.330Z,20.54
2023-06-10T06:40:17.974Z,20.55
2023-06-10T06:42:46.550Z,20.63
2023-06-10T06:45:14.593Z,20.71
2023-06-10T06:47:44.468Z,20.79
2023-06-10T06:50:12.784Z,20.87
2023-06-10T06:52:40.934Z,21.01
2023-06-10T06:55:10.035Z,21.14
2023-06-10T06:57:38.712Z,21.32
2023-06-10T07:00:09.116Z,21.45
2023-06-10T07:02:37.339Z,21.60
2023-06-10T07:05:07.617Z,21.75
2023-06-10T07:07:35.934Z,21.90
2023-06-10T07:10:03.932Z,22.04
2023-06-10T07:12:31.905Z,22.15
2023-06-10T07:14:59.935Z,22.27
2023-06-10T07:17:28.282Z,22.37
2023-06-10T07:19:58.530Z,22.44
2023-06-10T07:22:28.117Z,22.49
2023-06-10T07:24:56.709Z,22.59
2023-06-10T07:27:24.913Z,22.65
2023-06-10T07:29:53.037Z,22.78
2023-06-10T07:32:23.436Z,22.92
2023-06-10T07:34:51.556Z,23.07
2023-06-10T07:37:20.861Z,23.20
2023-06-10T07:39:50.212Z,23.33
2023-06-10T07:42:18.242Z,23.42
2023-06-10T07:44:46.372Z,23.44
2023-06-10T07:47:14.470Z,23.56
2023-06-10T07:49:44.285Z,23.67
2023-06-10T07:52:12.273Z,23.67
2023-06-10T07:54:40.180Z,23.67
2023-06-10T07:57:09.750Z,23.73
2023-06-10T07:59:40.838Z,23.80
2023-06-10T08:02:08.804Z,23.94
2023-06-10T08:04:37.419Z,24.15
2023-06-10T08:07:05.982Z,24.23
2023-06-10T08:09:33.974Z,24.32
2023-06-10T08:12:02.003Z,24.39
2023-06-10T08:14:31.334Z,24.47
2023-06-10T08:17:02.404Z,24.42
2023-06-10T08:19:31.857Z,24.45
2023-06-10T08:22:00.006Z,24.55
2023-06-10T08:24:28.199Z,24.70
2023-06-10T08:26:57.511Z,24.93
2023-06-10T08:29:26.050Z,25.11
2023-06-10T08:31:55.507Z,25.36
2023-06-10T08:34:23.430Z,25.60
2023-06-10T08:36:54.172Z,25.84
2023-06-10T08:39:22.257Z,26.04
2023-06-10T08:41:59.694Z,26.19
2023-06-10T08:44:30.715Z,26.36
2023-06-10T08:47:02.354Z,26.49
2023-06-10T08:49:36.344Z,26.53
2023-06-10T08:52:05.826Z,26.53
2023-06-10T08:54:39.140Z,26.58
2023-06-10T08:57:08.769Z,26.70
2023-06-10T08:59:37.061Z,26.74
2023-06-10T09:02:07.419Z,26.76
2023-06-10T09:04:35.910Z,26.98
2023-06-10T09:07:04.838Z,27.23
2023-06-10T09:09:33.935Z,27.45
2023-06-10T09:12:04.964Z,27.62
2023-06-10T09:14:32.925Z,27.60
2023-06-10T09:17:01.041Z,27.69
2023-06-10T09:19:31.253Z,27.89
2023-06-10T09:21:59.417Z,27.98
2023-06-10T09:24:27.852Z,27.99
2023-06-10T09:27:04.871Z,27.97
2023-06-10T09:29:32.845Z,28.10
2023-06-10T09:32:00.993Z,28.11
2023-06-10T09:34:31.088Z,28.17
2023-06-10T09:36:59.160Z,28.31
2023-06-10T09:39:27.138Z,28.49
2023-06-10T09:41:55.198Z,28.36
2023-06-10T09:44:26.664Z,28.39
2023-06-10T09:46:55.826Z,28.56
2023-06-10T09:49:23.809Z,28.65
2023-06-10T09:51:54.970Z,28.68
2023-06-10T09:54:23.913Z,28.61
2023-06-10T09:56:53.989Z,28.59
2023-06-10T09:59:33.162Z,28.72
2023-06-10T10:02:01.927Z,29.06
2023-06-10T10:04:30.558Z,29.33
2023-06-10T10:07:00.739Z,29.55
2023-06-10T10:09:28.803Z,29.74
2023-06-10T10:11:58.366Z,29.89
2023-06-10T10:14:27.578Z,30.02
2023-06-10T10:16:57.847Z,30.09
2023-06-10T10:19:31.143Z,30.20
2023-06-10T10:22:06.353Z,30.52
2023-06-10T10:24:38.852Z,30.75
2023-06-10T10:27:13.582Z,30.70
2023-06-10T10:29:44.184Z,30.59
2023-06-10T10:32:16.822Z,30.35
2023-06-10T10:34:52.964Z,30.22
2023-06-10T10:37:22.878Z,30.33
2023-06-10T10:39:51.938Z,30.43
2023-06-10T10:42:21.068Z,30.52
2023-06-10T10:44:49.355Z,30.90
2023-06-10T10:47:18.693Z,31.29
2023-06-10T10:49:50.937Z,31.71
2023-06-10T10:52:18.968Z,31.79
2023-06-10T10:54:49.065Z,31.86
2023-06-10T10:57:19.460Z,31.86
2023-06-10T10:59:57.704Z,31.77
2023-06-10T11:02:39.742Z,31.85
2023-06-10T11:05:09.899Z,32.04
2023-06-10T11:07:38.724Z,32.14
2023-06-10T11:10:11.350Z,32.06
2023-06-10T11:12:54.658Z,31.84
2023-06-10T11:15:25.249Z,31.74
2023-06-10T11:18:13.116Z,31.52
2023-06-10T11:21:01.621Z,31.29
2023-06-10T11:23:45.399Z,31.20
2023-06-10T11:26:35.608Z,31.05
2023-06-10T11:29:10.285Z,30.96
2023-06-10T11:31:57.294Z,30.96
2023-06-10T11:34:28.248Z,31.00
2023-06-10T11:36:56.526Z,30.99
2023-06-10T11:39:27.416Z,30.92
2023-06-10T11:41:57.582Z,30.95
2023-06-10T11:44:33.375Z,30.97
2023-06-10T11:47:01.426Z,30.92
2023-06-10T11:49:29.485Z,30.95
2023-06-10T11:51:57.683Z,30.97
2023-06-10T11:54:25.782Z,30.85
2023-06-10T11:57:01.753Z,30.87
2023-06-10T11:59:30.238Z,30.98
2023-06-10T12:01:58.643Z,31.00
2023-06-10T12:04:27.395Z,30.91
2023-06-10T12:06:56.132Z,30.72
2023-06-10T12:09:27.780Z,30.50
2023-06-10T12:12:00.299Z,30.36
2023-06-10T12:14:58.286Z,30.24
2023-06-10T12:17:39.158Z,30.12
2023-06-10T12:20:10.390Z,30.22
2023-06-10T12:22:39.544Z,30.24
2023-06-10T12:25:09.444Z,30.34
2023-06-10T12:27:38.769Z,30.50
2023-06-10T12:30:09.275Z,30.53
2023-06-10T12:32:38.529Z,30.51
2023-06-10T12:35:08.415Z,30.62
2023-06-10T12:37:40.231Z,30.77
2023-06-10T12:40:11.466Z,30.83
2023-06-10T12:42:40.273Z,31.04
2023-06-10T12:45:11.899Z,31.28
2023-06-10T12:47:40.976Z,31.41
2023-06-10T12:50:10.298Z,31.79
2023-06-10T12:52:38.389Z,32.50
2023-06-10T12:55:08.031Z,33.19
2023-06-10T12:57:36.318Z,33.94
2023-06-10T13:00:09.602Z,34.66
2023-06-10T13:02:39.009Z,34.83
2023-06-10T13:05:07.268Z,35.29
2023-06-10T13:07:35.446Z,36.40
2023-06-10T13:10:03.637Z,37.63
2023-06-10T13:12:46.111Z,38.17
2023-06-10T13:15:16.909Z,38.74
2023-06-10T13:17:50.314Z,39.63
2023-06-10T13:20:19.539Z,40.87
2023-06-10T13:22:48.701Z,42.02
2023-06-10T13:25:16.982Z,43.27
2023-06-10T13:27:45.234Z,44.69
2023-06-10T13:30:13.962Z,45.85
2023-06-10T13:32:42.072Z,45.81
2023-06-10T13:35:11.825Z,44.23
2023-06-10T13:37:40.114Z,42.63
2023-06-10T13:40:09.729Z,41.10
2023-06-10T13:42:38.361Z,39.69
2023-06-10T13:45:08.215Z,38.34
2023-06-10T13:47:36.451Z,37.06
2023-06-10T13:50:04.549Z,35.97
2023-06-10T13:52:34.117Z,34.97
2023-06-10T13:55:02.006Z,34.14
2023-06-10T13:57:30.158Z,33.41
2023-06-10T13:59:58.205Z,32.69
2023-06-10T14:02:26.236Z,32.06
2023-06-10T14:04:54.434Z,31.46
2023-06-10T14:07:22.455Z,30.60
2023-06-10T14:09:52.697Z,29.91
2023-06-10T14:12:20.759Z,29.34
2023-06-10T14:14:50.893Z,28.69
2023-06-10T14:17:22.068Z,28.23
2023-06-10T14:19:50.084Z,27.89
2023-06-10T14:22:18.077Z,27.48
2023-06-10T14:24:46.077Z,27.17
2023-06-10T14:27:16.327Z,26.91
2023-06-10T14:29:44.462Z,26.69
2023-06-10T14:32:12.522Z,26.50
2023-06-10T14:34:40.617Z,26.34
2023-06-10T14:37:09.443Z,26.20
2023-06-10T14:39:39.280Z,26.10
2023-06-10T14:42:08.041Z,26.05
2023-06-10T14:44:37.603Z,26.01
2023-06-10T14:47:06.181Z,26.02
2023-06-10T14:49:34.286Z,26.11
2023-06-10T14:52:02.463Z,26.24
2023-06-10T14:54:30.592Z,26.36
2023-06-10T14:56:58.666Z,26.54
2023-06-10T14:59:26.782Z,26.79
2023-06-10T15:01:56.324Z,27.12
2023-06-10T15:04:25.021Z,27.47
2023-06-10T15:06:53.169Z,28.08
2023-06-10T15:09:21.703Z,28.78
2023-06-10T15:11:49.785Z,29.62
2023-06-10T15:14:17.842Z,30.70
2023-06-10T15:16:46.133Z,31.61
2023-06-10T15:19:15.674Z,32.17
2023-06-10T15:21:43.641Z,32.58
2023-06-10T15:24:12.295Z,33.49
2023-06-10T15:26:40.433Z,34.53
2023-06-10T15:29:08.388Z,34.93
2023-06-10T15:31:36.456Z,34.59
2023-06-10T15:34:04.879Z,33.88
2023-06-10T15:36:34.273Z,33.15
2023-06-10T15:39:05.225Z,32.43
2023-06-10T15:41:33.287Z,32.18
2023-06-10T15:44:01.925Z,32.56
2023-06-10T15:46:30.686Z,32.80
2023-06-10T15:48:58.883Z,32.88
2023-06-10T15:51:26.883Z,32.97
2023-06-10T15:53:56.574Z,33.29
2023-06-10T15:56:24.763Z,34.45
2023-06-10T15:58:52.908Z,36.33
2023-06-10T16:01:24.063Z,38.24
2023-06-10T16:03:52.708Z,39.99
2023-06-10T16:06:20.997Z,41.35
2023-06-10T16:08:49.197Z,42.48
2023-06-10T16:11:18.712Z,43.23
2023-06-10T16:13:46.833Z,43.55
2023-06-10T16:16:15.011Z,43.95
2023-06-10T16:18:42.941Z,44.25
2023-06-10T16:21:11.139Z,44.50
2023-06-10T16:23:40.195Z,44.75
2023-06-10T16:26:08.364Z,44.83
2023-06-10T16:28:37.860Z,44.87
2023-06-10T16:31:06.007Z,44.94
2023-06-10T16:33:34.139Z,44.94
2023-06-10T16:36:02.229Z,44.68
2023-06-10T16:38:30.331Z,44.54
2023-06-10T16:40:58.901Z,44.31
2023-06-10T16:43:27.742Z,43.44
2023-06-10T16:45:58.167Z,41.98
2023-06-10T16:48:26.505Z,40.09
2023-06-10T16:50:54.703Z,38.30
2023-06-10T16:53:22.852Z,36.70
2023-06-10T16:55:50.911Z,35.24
2023-06-10T16:58:18.916Z,33.95
2023-06-10T17:00:47.156Z,32.87
2023-06-10T17:03:19.458Z,31.89
2023-06-10T17:05:47.695Z,31.02
2023-06-10T17:08:15.838Z,30.27
2023-06-10T17:10:44.472Z,29.65
2023-06-10T17:13:13.220Z,29.04
2023-06-10T17:15:41.909Z,28.50
2023-06-10T17:18:10.269Z,28.21
2023-06-10T17:20:39.768Z,28.21
2023-06-10T17:23:08.872Z,28.52
2023-06-10T17:25:37.813Z,28.76
2023-06-10T17:28:05.937Z,28.76
2023-06-10T17:30:34.066Z,28.48
2023-06-10T17:33:02.079Z,28.07
2023-06-10T17:35:32.054Z,27.58
2023-06-10T17:38:01.520Z,27.13
2023-06-10T17:40:29.604Z,26.71
2023-06-10T17:42:57.818Z,26.28
2023-06-10T17:45:25.872Z,25.75
2023-06-10T17:47:53.911Z,25.31
2023-06-10T17:50:21.901Z,24.93
2023-06-10T17:52:49.784Z,24.62
2023-06-10T17:55:19.287Z,24.38
2023-06-10T17:57:47.302Z,24.15
2023-06-10T18:00:16.243Z,23.89
2023-06-10T18:02:44.297Z,23.66
2023-06-10T18:05:12.745Z,23.46
2023-06-10T18:07:40.961Z,23.21
2023-06-10T18:10:10.274Z,22.97
2023-06-10T18:12:39.814Z,22.76
2023-06-10T18:15:09.150Z,22.56
2023-06-10T18:17:37.416Z,22.37
2023-06-10T18:20:06.092Z,22.19
2023-06-10T18:22:34.102Z,22.02
2023-06-10T18:25:05.798Z,21.86
2023-06-10T18:27:34.165Z,21.69
2023-06-10T18:30:06.273Z,21.53
2023-06-10T18:32:34.435Z,21.36
2023-06-10T18:35:02.458Z,21.21
2023-06-10T18:37:30.568Z,21.04
2023-06-10T18:39:58.618Z,20.95
2023-06-10T18:42:26.942Z,20.85
2023-06-10T18:44:55.011Z,20.76
2023-06-10T18:47:24.476Z,20.67
2023-06-10T18:49:52.707Z,20.57
2023-06-10T18:52:20.730Z,20.48
2023-06-10T18:54:48.908Z,20.40
2023-06-10T18:57:16.935Z,20.36
2023-06-10T18:59:44.990Z,20.32
2023-06-10T19:02:13.149Z,20.30
2023-06-10T19:04:42.795Z,20.28
2023-06-10T19:07:10.761Z,20.24
2023-06-10T19:09:39.846Z,20.19
2023-06-10T19:12:09.313Z,20.13
2023-06-10T19:14:39.411Z,20.11
2023-06-10T19:17:08.974Z,20.08
2023-06-10T19:19:37.307Z,20.02
2023-06-10T19:22:07.468Z,19.95
2023-06-10T19:24:35.552Z,19.90
2023-06-10T19:27:03.552Z,19.79
2023-06-10T19:29:31.667Z,19.76
2023-06-10T19:32:00.222Z,19.73
2023-06-10T19:34:28.317Z,19.72
2023-06-10T19:36:56.381Z,19.70
2023-06-10T19:39:25.883Z,19.68
2023-06-10T19:41:54.129Z,19.64
2023-06-10T19:44:22.144Z,19.61
2023-06-10T19:46:50.296Z,19.59
2023-06-10T19:49:18.514Z,19.56
2023-06-10T19:51:49.075Z,19.55
2023-06-10T19:54:17.274Z,19.50
2023-06-10T19:56:46.873Z,19.41
2023-06-10T19:59:15.485Z,19.34
2023-06-10T20:01:44.162Z,19.26
2023-06-10T20:04:12.273Z,19.24
2023-06-10T20:06:41.522Z,19.22
2023-06-10T20:09:09.599Z,19.19
2023-06-10T20:11:37.588Z,19.15
2023-06-10T20:14:07.055Z,19.09
2023-06-10T20:16:35.178Z,19.03
2023-06-10T20:19:04.100Z,18.97
2023-06-10T20:21:32.136Z,18.92
2023-06-10T20:24:00.182Z,18.86
2023-06-10T20:26:28.318Z,18.81
2023-06-10T20:28:56.436Z,18.75
2023-06-10T20:31:27.492Z,18.71
2023-06-10T20:33:55.560Z,18.65
2023-06-10T20:36:24.382Z,18.60
2023-06-10T20:38:52.627Z,18.53
2023-06-10T20:41:22.738Z,18.48
2023-06-10T20:43:50.888Z,18.44
2023-06-10T20:46:19.030Z,18.40
2023-06-10T20:48:48.392Z,18.37
2023-06-10T20:51:17.020Z,18.31
2023-06-10T20:53:45.196Z,18.26
2023-06-10T20:56:13.188Z,18.21
2023-06-10T20:58:41.997Z,18.18
2023-06-10T21:01:10.094Z,18.16
2023-06-10T21:03:38.151Z,18.14
2023-06-10T21:06:08.198Z,18.13
2023-06-10T21:08:36.276Z,18.11
2023-06-10T21:11:04.506Z,18.11
2023-06-10T21:13:32.524Z,18.08
2023-06-10T21:16:00.498Z,18.06
2023-06-10T21:18:29.391Z,18.04
2023-06-10T21:20:57.352Z,18.02
2023-06-10T21:23:26.988Z,17.97
2023-06-10T21:25:54.828Z,17.91
2023-06-10T21:28:22.759Z,17.84
2023-06-10T21:30:51.099Z,17.78
2023-06-10T21:33:19.162Z,17.73
2023-06-10T21:35:47.062Z,17.71
2023-06-10T21:38:15.051Z,17.69
2023-06-10T21:40:44.403Z,17.69
2023-06-10T21:43:12.432Z,17.70
2023-06-10T21:45:40.475Z,17.73
2023-06-10T21:48:08.722Z,17.74
2023-06-10T21:50:37.211Z,17.77
2023-06-10T21:53:05.208Z,17.73
2023-06-10T21:55:33.076Z,17.70
2023-06-10T21:58:02.528Z,17.68
2023-06-10T22:00:30.623Z,17.66
2023-06-10T22:02:59.494Z,17.66
2023-06-10T22:05:27.600Z,17.63
2023-06-10T22:07:55.866Z,17.59
2023-06-10T22:10:24.041Z,17.54
2023-06-10T22:12:52.269Z,17.49
2023-06-10T22:15:22.098Z,17.45
2023-06-10T22:17:50.037Z,17.41
2023-06-10T22:20:20.074Z,17.39
2023-06-10T22:22:50.872Z,17.38
2023-06-10T22:25:18.740Z,17.35
2023-06-10T22:27:48.886Z,17.32
2023-06-10T22:30:17.100Z,17.29
2023-06-10T22:32:46.821Z,17.26
2023-06-10T22:35:15.780Z,17.21
2023-06-10T22:37:43.764Z,17.20
2023-06-10T22:40:12.415Z,17.16
2023-06-10T22:42:40.484Z,17.14
2023-06-10T22:45:09.402Z,17.11
2023-06-10T22:47:39.794Z,17.08
2023-06-10T22:50:10.309Z,17.04
2023-06-10T22:52:38.476Z,17.00
2023-06-10T22:55:07.407Z,16.92
2023-06-10T22:57:38.603Z,16.85
2023-06-10T23:00:08.814Z,16.78
2023-06-10T23:02:37.328Z,16.71
2023-06-10T23:05:05.874Z,16.67
2023-06-10T23:07:36.149Z,16.66
2023-06-10T23:10:04.206Z,16.64
2023-06-10T23:12:32.222Z,16.61
2023-06-10T23:15:00.216Z,16.58
2023-06-10T23:17:29.791Z,16.55
2023-06-10T23:19:59.673Z,16.54
2023-06-10T23:22:32.058Z,16.51
2023-06-10T23:25:03.754Z,16.50
2023-06-10T23:27:31.942Z,16.49
2023-06-10T23:30:00.870Z,16.46
2023-06-10T23:32:29.203Z,16.46
2023-06-10T23:34:57.565Z,16.44
2023-06-10T23:37:26.882Z,16.42
2023-06-10T23:39:55.258Z,16.44
2023-06-10T23:42:25.662Z,16.41
2023-06-10T23:44:56.471Z,16.38
2023-06-10T23:47:24.511Z,16.36
2023-06-10T23:49:52.535Z,16.33
2023-06-10T23:52:22.500Z,16.28
2023-06-10T23:54:50.687Z,16.21
2023-06-10T23:57:18.793Z,16.16
2023-06-10T23:59:48.119Z,16.12
